TimeEDT,TemperatureF,Dew PointF,Humidity,Sea Level PressureIn,VisibilityMPH,Wind Direction,Wind SpeedMPH,Gust SpeedMPH,PrecipitationIn,Events,Conditions,WindDirDegrees,DateUTC
12:53 AM,48.0,39.9,74,30.06,10.0,NW,6.9,-,N/A,,Clear,310,2012-10-07 04:53:00
1:53 AM,45.0,39.0,80,30.06,10.0,Calm,Calm,-,N/A,,Clear,0,2012-10-07 05:53:00
2:53 AM,44.1,37.9,79,30.05,10.0,Calm,Calm,-,N/A,,Clear,0,2012-10-07 06:53:00
3:53 AM,45.0,37.0,74,30.07,10.0,Calm,Calm,-,N/A,,Clear,0,2012-10-07 07:53:00
4:53 AM,45.0,39.9,82,30.08,10.0,Calm,Calm,-,N/A,,Overcast,0,2012-10-07 08:53:00
5:53 AM,46.9,42.1,83,30.09,10.0,Calm,Calm,-,N/A,,Overcast,0,2012-10-07 09:53:00
6:53 AM,48.0,41.0,77,30.09,10.0,Calm,Calm,-,N/A,,Overcast,0,2012-10-07 10:53:00
7:53 AM,48.0,42.1,80,30.12,10.0,Calm,Calm,-,N/A,,Overcast,0,2012-10-07 11:53:00
8:53 AM,48.9,41.0,74,30.13,10.0,Calm,Calm,-,N/A,,Overcast,0,2012-10-07 12:53:00
9:53 AM,48.9,42.1,77,30.14,10.0,Calm,Calm,-,0.00,,Overcast,0,2012-10-07 13:53:00
10:53 AM,50.0,39.0,66,30.13,10.0,Calm,Calm,-,0.00,,Overcast,0,2012-10-07 14:53:00
11:53 AM,51.1,39.0,63,30.12,10.0,Calm,Calm,-,N/A,,Overcast,0,2012-10-07 15:53:00
12:53 PM,52.0,39.9,63,30.11,10.0,Variable,4.6,-,N/A,,Overcast,0,2012-10-07 16:53:00
1:53 PM,52.0,39.0,61,30.08,10.0,Variable,3.5,-,0.00,Rain,Light Rain,0,2012-10-07 17:53:00
2:53 PM,52.0,39.9,63,30.05,10.0,Calm,Calm,-,0.00,,Overcast,0,2012-10-07 18:53:00
3:53 PM,51.1,42.1,71,30.06,10.0,SW,4.6,-,0.00,Rain,Light Rain,220,2012-10-07 19:53:00
4:53 PM,51.1,42.1,71,30.07,10.0,West,6.9,-,0.00,,Overcast,270,2012-10-07 20:53:00
5:53 PM,50.0,44.1,80,30.09,10.0,West,4.6,-,0.01,Rain,Light Rain,260,2012-10-07 21:53:00
6:53 PM,48.0,43.0,83,30.11,10.0,WSW,3.5,-,0.02,Rain,Light Rain,240,2012-10-07 22:53:00
7:53 PM,48.0,44.1,86,30.12,10.0,Calm,Calm,-,0.00,,Overcast,0,2012-10-07 23:53:00
8:53 PM,46.9,44.1,90,30.14,10.0,Calm,Calm,-,N/A,,Mostly Cloudy,0,2012-10-08 00:53:00
9:27 PM,48.2,44.6,87,30.13,10.0,Calm,Calm,-,N/A,,Overcast,0,2012-10-08 01:27:00
9:53 PM,46.0,44.1,93,30.15,10.0,WNW,3.5,-,N/A,,Scattered Clouds,290,2012-10-08 01:53:00
10:53 PM,45.0,42.1,90,30.16,8.0,Calm,Calm,-,N/A,,Partly Cloudy,0,2012-10-08 02:53:00
11:53 PM,45.0,41.0,86,30.17,10.0,West,3.5,-,N/A,,Mostly Cloudy,280,2012-10-08 03:53:00